Time;durP1;ratioP1;P1;durP2;ratioP2;P2;SDS_P1;SDS_P2;PMS_P1;PMS_P2;Temp;Humidity;BMP_temperature;BMP_pressure;BME280_temperature;BME280_humidity;BME280_pressure;Samples;Min_cycle;Max_cycle;Signal;HPM_P1;HPM_P2
2023/10/25 00:02:18;;;;;;;8.65;4.45;;;24.30;65.70;;;;;;6174975;28;82722;-65
2023/10/25 00:05:18;;;;;;;9.30;3.72;;;24.30;65.60;;;;;;6178204;28;81051;-65
2023/10/25 00:08:19;;;;;;;9.70;3.92;;;24.30;65.60;;;;;;6177345;28;81707;-69
2023/10/25 00:11:19;;;;;;;8.80;3.65;;;24.30;65.40;;;;;;6176555;28;80239;-64
2023/10/25 00:14:20;;;;;;;8.77;3.90;;;24.30;65.90;;;;;;6196229;27;80475;-64
2023/10/25 00:17:20;;;;;;;8.07;3.55;;;24.30;65.20;;;;;;6167804;27;80354;-64
2023/10/25 00:20:21;;;;;;;12.63;3.97;;;24.30;65.20;;;;;;6175141;28;80872;-64
2023/10/25 00:23:21;;;;;;;8.73;3.70;;;24.30;65.40;;;;;;6153411;28;80639;-64
2023/10/25 00:26:22;;;;;;;10.52;3.75;;;24.30;65.30;;;;;;6179699;28;81041;-64
2023/10/25 00:29:26;;;;;;;9.80;4.05;;;24.30;65.30;;;;;;6175213;28;83868;-65
2023/10/25 00:32:26;;;;;;;8.00;3.70;;;24.30;65.50;;;;;;6167500;28;82874;-65
2023/10/25 00:35:28;;;;;;;7.22;3.38;;;24.40;65.40;;;;;;6175661;28;80330;-65
2023/10/25 00:38:29;;;;;;;10.35;3.85;;;24.30;65.50;;;;;;6174948;28;81521;-65
2023/10/25 00:41:29;;;;;;;12.68;3.33;;;24.30;65.60;;;;;;6176928;28;82129;-65
2023/10/25 00:44:30;;;;;;;13.05;4.10;;;24.30;65.90;;;;;;6175849;28;81376;-64
2023/10/25 00:47:31;;;;;;;11.07;3.63;;;24.40;66.10;;;;;;6168761;28;82323;-66
2023/10/25 00:50:32;;;;;;;8.88;3.88;;;24.40;66.00;;;;;;6151721;28;80971;-66
2023/10/25 00:53:32;;;;;;;9.77;4.15;;;24.40;66.20;;;;;;6156570;28;80496;-64
2023/10/25 00:56:35;;;;;;;12.20;4.63;;;24.30;66.20;;;;;;6163669;28;80761;-64
2023/10/25 00:59:36;;;;;;;9.02;3.67;;;24.30;66.10;;;;;;6170822;28;80746;-65
2023/10/25 01:02:38;;;;;;;7.70;3.38;;;24.30;66.10;;;;;;6176603;28;81271;-64
2023/10/25 01:05:38;;;;;;;13.57;4.13;;;24.30;66.20;;;;;;6171627;28;83285;-65
2023/10/25 01:08:39;;;;;;;8.32;3.38;;;24.30;66.30;;;;;;6168909;28;81468;-74
2023/10/25 01:11:39;;;;;;;10.20;3.67;;;24.30;66.40;;;;;;6174102;28;81120;-74
2023/10/25 01:14:40;;;;;;;9.98;3.58;;;24.30;66.20;;;;;;6166298;28;80380;-71
2023/10/25 01:17:40;;;;;;;9.70;3.95;;;24.30;66.30;;;;;;6169181;28;80950;-75
2023/10/25 01:20:41;;;;;;;12.25;3.55;;;24.30;66.30;;;;;;6160647;28;80879;-76
2023/10/25 01:23:42;;;;;;;12.43;3.88;;;24.30;66.30;;;;;;6172299;28;81395;-73
2023/10/25 01:26:42;;;;;;;8.88;3.75;;;24.30;66.70;;;;;;6175940;28;80410;-65
2023/10/25 01:29:43;;;;;;;7.57;4.00;;;24.30;66.70;;;;;;6176579;28;80842;-66
2023/10/25 01:32:43;;;;;;;7.57;4.07;;;24.30;67.90;;;;;;6178550;28;81634;-67
2023/10/25 01:35:44;;;;;;;8.85;4.20;;;24.30;66.80;;;;;;6189640;28;82332;-66
2023/10/25 01:38:44;;;;;;;7.32;4.07;;;24.30;66.50;;;;;;6176785;28;81620;-66
2023/10/25 01:41:45;;;;;;;9.02;3.72;;;24.30;66.50;;;;;;6225174;28;80473;-67
2023/10/25 01:44:45;;;;;;;5.80;3.25;;;24.30;66.40;;;;;;6221472;28;81602;-67
2023/10/25 01:47:46;;;;;;;8.05;3.75;;;24.30;66.50;;;;;;6219613;27;80366;-69
2023/10/25 01:50:46;;;;;;;9.93;3.50;;;24.30;66.50;;;;;;6212691;27;80209;-68
2023/10/25 01:53:47;;;;;;;10.30;4.13;;;24.30;66.40;;;;;;6225202;27;81221;-67
2023/10/25 01:56:47;;;;;;;9.05;3.90;;;24.30;66.30;;;;;;6187884;28;83726;-66
2023/10/25 01:59:48;;;;;;;4.47;2.90;;;24.30;66.40;;;;;;6180902;28;80722;-65
2023/10/25 02:02:48;;;;;;;9.23;3.60;;;24.20;66.30;;;;;;6192095;28;82836;-68
2023/10/25 02:05:49;;;;;;;7.10;3.40;;;24.30;66.40;;;;;;6176271;28;83229;-69
2023/10/25 02:08:50;;;;;;;6.25;3.35;;;24.20;66.40;;;;;;6179069;28;81990;-69
2023/10/25 02:11:50;;;;;;;6.55;2.97;;;24.30;66.40;;;;;;6163556;28;83096;-70
2023/10/25 02:14:51;;;;;;;8.70;3.83;;;24.30;66.40;;;;;;6190465;28;80981;-69
2023/10/25 02:17:51;;;;;;;8.90;3.50;;;24.30;66.20;;;;;;6185075;28;83210;-68
2023/10/25 02:20:52;;;;;;;6.97;3.70;;;24.30;66.10;;;;;;6179915;28;80749;-69
2023/10/25 02:23:55;;;;;;;6.68;4.13;;;24.30;66.10;;;;;;6174595;28;82379;-68
2023/10/25 02:26:56;;;;;;;7.70;4.00;;;24.30;66.00;;;;;;6172952;28;81218;-68
2023/10/25 02:29:57;;;;;;;9.32;3.22;;;24.30;66.20;;;;;;6190536;28;81483;-68
2023/10/25 02:32:57;;;;;;;7.18;4.05;;;24.30;66.10;;;;;;6190297;28;81075;-68
2023/10/25 02:35:59;;;;;;;8.25;3.58;;;24.30;65.90;;;;;;6199847;28;86431;-69
2023/10/25 02:39:00;;;;;;;6.70;3.75;;;24.30;65.80;;;;;;6177343;28;80286;-70
2023/10/25 02:42:00;;;;;;;9.25;3.38;;;24.30;65.60;;;;;;6156478;28;81239;-69
2023/10/25 02:45:01;;;;;;;5.88;2.83;;;24.30;65.50;;;;;;6185773;28;80565;-69
2023/10/25 02:48:01;;;;;;;7.72;3.83;;;24.30;65.30;;;;;;6200381;28;80843;-69
2023/10/25 02:51:02;;;;;;;9.43;3.97;;;24.30;65.50;;;;;;6177085;28;80958;-68
2023/10/25 02:54:02;;;;;;;7.80;3.38;;;24.30;65.40;;;;;;6201548;28;81101;-68
2023/10/25 02:57:03;;;;;;;8.90;3.60;;;24.30;65.60;;;;;;6176703;28;81663;-65
2023/10/25 03:00:06;;;;;;;7.15;3.60;;;24.30;65.50;;;;;;6170874;28;83381;-66
2023/10/25 03:03:06;;;;;;;5.18;3.65;;;24.20;65.70;;;;;;6208571;28;83012;-66
2023/10/25 03:06:07;;;;;;;5.78;3.28;;;24.20;65.30;;;;;;6170084;28;80921;-66
2023/10/25 03:09:09;;;;;;;4.53;3.13;;;24.30;65.30;;;;;;6172617;28;82306;-65
2023/10/25 03:12:10;;;;;;;5.93;2.97;;;24.30;65.30;;;;;;6170206;28;83531;-66
2023/10/25 03:15:10;;;;;;;6.57;2.90;;;24.30;65.10;;;;;;6190877;27;80502;-64
2023/10/25 03:18:11;;;;;;;7.75;3.05;;;24.30;65.00;;;;;;6186587;28;80478;-66
2023/10/25 03:21:13;;;;;;;6.22;3.03;;;24.30;65.10;;;;;;6210344;28;84965;-67
2023/10/25 03:24:13;;;;;;;6.30;3.88;;;24.30;65.20;;;;;;6157915;28;80185;-67
2023/10/25 03:27:14;;;;;;;6.10;3.20;;;24.30;65.00;;;;;;6191591;28;80752;-66
2023/10/25 03:30:15;;;;;;;4.53;3.22;;;24.30;65.20;;;;;;6165050;28;80489;-66
2023/10/25 03:33:15;;;;;;;7.60;3.45;;;24.30;65.50;;;;;;6208667;27;80664;-67
2023/10/25 03:36:16;;;;;;;7.63;2.45;;;24.30;65.60;;;;;;6207887;28;83410;-64
2023/10/25 03:39:16;;;;;;;4.80;2.65;;;24.30;65.50;;;;;;6167504;28;80422;-63
2023/10/25 03:42:17;;;;;;;4.63;2.75;;;24.30;65.30;;;;;;6199341;28;81158;-66
2023/10/25 03:45:17;;;;;;;4.82;2.95;;;24.40;65.40;;;;;;6195175;28;81459;-64
2023/10/25 03:48:18;;;;;;;5.40;3.10;;;24.40;65.20;;;;;;6170106;28;80994;-68
2023/10/25 03:51:18;;;;;;;3.88;2.50;;;24.40;65.30;;;;;;6178849;28;81338;-68
2023/10/25 03:54:19;;;;;;;4.57;2.30;;;24.30;65.10;;;;;;6186918;28;81741;-67
2023/10/25 03:57:20;;;;;;;4.32;2.45;;;24.30;65.10;;;;;;6189767;28;80949;-66
2023/10/25 04:00:20;;;;;;;5.75;2.83;;;24.30;65.00;;;;;;6181070;28;82015;-68
2023/10/25 04:03:21;;;;;;;4.93;2.70;;;24.30;64.80;;;;;;6203514;28;80316;-64
2023/10/25 04:06:21;;;;;;;5.00;2.58;;;24.40;65.20;;;;;;6196152;28;81030;-68
2023/10/25 04:09:22;;;;;;;5.75;2.28;;;24.30;65.10;;;;;;6180030;28;80675;-67
2023/10/25 04:12:22;;;;;;;6.28;2.40;;;24.40;65.10;;;;;;6202344;27;82749;-62
2023/10/25 04:15:25;;;;;;;9.35;2.63;;;24.40;65.30;;;;;;6188760;28;82258;-60
2023/10/25 04:18:25;;;;;;;6.68;2.85;;;24.40;65.40;;;;;;6184910;28;81579;-57
2023/10/25 04:21:25;;;;;;;8.77;2.65;;;24.40;65.50;;;;;;6170108;28;80354;-61
2023/10/25 04:24:26;;;;;;;8.02;2.50;;;24.40;65.80;;;;;;6188277;28;81057;-61
2023/10/25 04:27:27;;;;;;;12.93;2.70;;;24.40;66.10;;;;;;6162660;28;80719;-61
2023/10/25 04:30:27;;;;;;;11.15;2.75;;;24.40;66.20;;;;;;6192021;28;80533;-59
2023/10/25 04:33:28;;;;;;;7.82;2.50;;;24.40;66.50;;;;;;6198615;27;81365;-60
2023/10/25 04:36:28;;;;;;;8.93;2.50;;;24.40;67.10;;;;;;6190216;28;84531;-61
2023/10/25 04:39:29;;;;;;;14.25;2.50;;;24.50;67.10;;;;;;6178074;28;80945;-61
2023/10/25 04:42:29;;;;;;;8.50;3.53;;;24.40;67.10;;;;;;6175523;28;80582;-60
2023/10/25 04:45:30;;;;;;;10.82;3.45;;;24.40;67.00;;;;;;6178143;28;80423;-59
2023/10/25 04:48:33;;;;;;;6.45;3.13;;;24.40;67.00;;;;;;6189179;28;87712;-61
2023/10/25 04:51:33;;;;;;;14.95;2.95;;;24.40;66.90;;;;;;6184523;28;80961;-63
2023/10/25 04:54:34;;;;;;;8.32;2.83;;;24.40;66.60;;;;;;6163337;28;80421;-65
2023/10/25 04:57:34;;;;;;;18.73;3.28;;;24.40;66.60;;;;;;6169131;28;80786;-67
2023/10/25 05:00:35;;;;;;;14.45;4.60;;;24.40;66.80;;;;;;6195230;28;81429;-62
2023/10/25 05:03:35;;;;;;;10.25;3.88;;;24.40;66.70;;;;;;6163011;28;80980;-64
2023/10/25 05:06:36;;;;;;;12.75;4.47;;;24.40;66.90;;;;;;6160824;28;81251;-58
2023/10/25 05:09:36;;;;;;;18.00;4.53;;;24.40;66.70;;;;;;6160564;28;81191;-60
2023/10/25 05:12:38;;;;;;;9.80;4.32;;;24.40;66.80;;;;;;6160328;28;81581;-59
2023/10/25 05:15:38;;;;;;;11.15;4.90;;;24.30;66.80;;;;;;6152527;28;81178;-60
2023/10/25 05:18:39;;;;;;;14.27;4.45;;;24.30;66.40;;;;;;6172124;28;80875;-60
2023/10/25 05:21:39;;;;;;;14.23;5.75;;;24.30;66.50;;;;;;6202230;27;81373;-61
2023/10/25 05:24:40;;;;;;;10.20;4.60;;;24.10;66.40;;;;;;6184034;28;80517;-60
2023/10/25 05:27:40;;;;;;;15.20;4.32;;;24.20;66.20;;;;;;6163611;28;80885;-60
2023/10/25 05:30:41;;;;;;;10.07;4.80;;;24.20;66.30;;;;;;6177814;28;84876;-60
2023/10/25 05:33:41;;;;;;;11.48;4.88;;;24.20;66.20;;;;;;6193225;27;80786;-62
2023/10/25 05:36:42;;;;;;;14.77;5.03;;;24.10;65.90;;;;;;6183137;28;83939;-60
2023/10/25 05:39:42;;;;;;;6.80;4.47;;;24.10;66.10;;;;;;6160090;28;80654;-62
2023/10/25 05:42:43;;;;;;;14.98;5.90;;;24.10;65.80;;;;;;6181815;28;81270;-60
2023/10/25 05:45:43;;;;;;;9.25;5.10;;;24.00;65.40;;;;;;6168363;28;80758;-61
2023/10/25 05:48:44;;;;;;;8.77;5.07;;;24.00;65.50;;;;;;6170526;28;81661;-60
2023/10/25 05:51:45;;;;;;;11.65;5.03;;;23.90;65.60;;;;;;6202421;28;87008;-59
2023/10/25 05:54:45;;;;;;;11.45;5.93;;;23.90;65.80;;;;;;6153962;28;81864;-62
2023/10/25 05:57:46;;;;;;;12.27;6.10;;;23.80;65.80;;;;;;6058661;28;82162;-62
2023/10/25 06:00:49;;;;;;;9.05;5.80;;;23.80;65.80;;;;;;6074204;28;82467;-62
2023/10/25 06:03:49;;;;;;;9.73;5.25;;;23.70;65.90;;;;;;6075295;28;81561;-62
2023/10/25 06:06:50;;;;;;;10.57;6.35;;;23.60;65.70;;;;;;6046217;28;81519;-62
2023/10/25 06:09:50;;;;;;;9.18;5.65;;;23.60;65.60;;;;;;6035702;28;81863;-60
2023/10/25 06:12:51;;;;;;;8.70;5.35;;;23.60;65.60;;;;;;6047753;28;80583;-63
2023/10/25 06:15:51;;;;;;;9.13;5.60;;;23.60;65.60;;;;;;6029456;28;82317;-61
2023/10/25 06:18:52;;;;;;;13.23;5.93;;;23.60;65.50;;;;;;6032287;28;80655;-62
2023/10/25 06:21:52;;;;;;;10.02;6.18;;;23.50;65.50;;;;;;6050193;28;81752;-62
2023/10/25 06:24:53;;;;;;;13.38;5.82;;;23.50;65.50;;;;;;6143146;28;81109;-62
2023/10/25 06:27:56;;;;;;;9.52;6.32;;;23.50;65.30;;;;;;6170796;28;80797;-62
2023/10/25 06:30:56;;;;;;;11.30;6.95;;;23.50;65.40;;;;;;6176349;28;80855;-61
2023/10/25 06:33:57;;;;;;;14.65;6.80;;;23.40;65.50;;;;;;6171981;28;80696;-61
2023/10/25 06:36:57;;;;;;;11.38;6.63;;;23.40;65.50;;;;;;6161894;28;80579;-61
2023/10/25 06:39:58;;;;;;;13.63;7.90;;;23.40;65.40;;;;;;6188641;28;81903;-60
2023/10/25 06:42:58;;;;;;;13.90;8.18;;;23.40;65.50;;;;;;6172690;28;80160;-62
2023/10/25 06:45:59;;;;;;;15.57;7.82;;;23.40;65.40;;;;;;6170171;28;81736;-61
2023/10/25 06:49:00;;;;;;;13.43;7.78;;;23.30;65.30;;;;;;6166580;28;80965;-62
2023/10/25 06:52:00;;;;;;;11.75;7.63;;;23.30;65.40;;;;;;6161509;28;81427;-64
2023/10/25 06:55:01;;;;;;;16.27;7.90;;;23.30;65.40;;;;;;6170908;28;81794;-67
2023/10/25 06:58:02;;;;;;;14.30;6.95;;;23.20;65.40;;;;;;6178697;28;81181;-61
2023/10/25 07:01:03;;;;;;;17.02;7.43;;;23.20;65.50;;;;;;6179412;28;81111;-61
2023/10/25 07:04:03;;;;;;;10.82;7.35;;;23.20;65.40;;;;;;6190980;28;80785;-62
2023/10/25 07:07:04;;;;;;;18.25;7.90;;;23.20;65.50;;;;;;6217352;28;81893;-62
2023/10/25 07:10:05;;;;;;;10.02;6.70;;;23.20;65.40;;;;;;6219343;27;80540;-62
2023/10/25 07:13:05;;;;;;;13.52;7.30;;;23.10;65.40;;;;;;6224716;27;80358;-61
2023/10/25 07:16:06;;;;;;;9.85;6.53;;;23.20;65.50;;;;;;6202016;28;81139;-82
2023/10/25 07:19:06;;;;;;;9.32;6.30;;;23.10;65.60;;;;;;6187075;28;81531;-79
2023/10/25 07:22:07;;;;;;;15.23;7.13;;;23.10;65.50;;;;;;6164905;28;80132;-76
2023/10/25 07:25:07;;;;;;;10.13;6.78;;;23.10;65.50;;;;;;6165312;28;81400;-77
2023/10/25 07:28:08;;;;;;;11.40;6.43;;;23.10;65.40;;;;;;6173255;28;80430;-75
2023/10/25 07:31:08;;;;;;;9.20;5.88;;;23.10;65.40;;;;;;6177313;28;80257;-64
2023/10/25 07:34:09;;;;;;;11.50;5.80;;;23.10;65.60;;;;;;6188675;28;80430;-63
2023/10/25 07:37:10;;;;;;;8.85;5.53;;;23.10;65.50;;;;;;6184601;28;82410;-63
2023/10/25 07:40:10;;;;;;;8.85;6.03;;;23.10;65.30;;;;;;6179389;28;81047;-63
2023/10/25 07:43:11;;;;;;;9.63;5.63;;;23.10;65.20;;;;;;6182453;28;84058;-63
2023/10/25 07:46:11;;;;;;;9.02;5.47;;;23.10;65.20;;;;;;6212736;27;83055;-63
2023/10/25 07:49:12;;;;;;;7.97;5.47;;;23.10;65.20;;;;;;6211206;27;80070;-64
2023/10/25 07:52:12;;;;;;;9.95;5.40;;;23.20;65.20;;;;;;6208011;28;80424;-66
2023/10/25 07:55:13;;;;;;;7.30;5.38;;;23.20;65.50;;;;;;6205475;27;80380;-64
2023/10/25 07:58:14;;;;;;;8.23;5.03;;;23.20;65.40;;;;;;6185047;28;82299;-64
2023/10/25 08:01:14;;;;;;;12.82;6.22;;;23.20;65.20;;;;;;6182824;28;80708;-62
2023/10/25 08:04:15;;;;;;;7.05;4.82;;;23.30;65.40;;;;;;6184769;28;80776;-65
2023/10/25 08:07:15;;;;;;;13.50;5.32;;;23.30;65.40;;;;;;6185556;28;80519;-64
2023/10/25 08:10:16;;;;;;;7.30;5.07;;;23.30;65.10;;;;;;6196328;27;80539;-64
2023/10/25 08:13:17;;;;;;;7.65;4.93;;;23.30;64.90;;;;;;6190864;27;80966;-64
2023/10/25 08:16:17;;;;;;;7.63;5.03;;;23.30;64.80;;;;;;6191355;27;81001;-66
2023/10/25 08:19:19;;;;;;;14.38;5.85;;;23.30;64.70;;;;;;6168370;28;81008;-65
2023/10/25 08:22:19;;;;;;;9.25;5.80;;;23.30;64.70;;;;;;6169847;28;81279;-64
2023/10/25 08:25:20;;;;;;;8.35;5.47;;;23.30;64.50;;;;;;6169963;28;80542;-66
2023/10/25 08:28:21;;;;;;;9.35;5.20;;;23.30;64.60;;;;;;6166682;28;80503;-64
2023/10/25 08:31:22;;;;;;;8.27;5.32;;;23.30;64.40;;;;;;6183451;28;81067;-64
2023/10/25 08:34:22;;;;;;;9.00;5.53;;;23.30;64.30;;;;;;6166035;28;80353;-64
2023/10/25 08:37:23;;;;;;;10.52;6.00;;;23.30;64.30;;;;;;6167296;28;81397;-65
2023/10/25 08:40:23;;;;;;;11.57;5.90;;;23.30;64.10;;;;;;6167817;28;80673;-64
2023/10/25 08:43:24;;;;;;;11.63;6.20;;;23.30;64.20;;;;;;6155038;28;80528;-64
2023/10/25 08:46:24;;;;;;;9.77;6.05;;;23.30;64.20;;;;;;6155900;28;81522;-64
2023/10/25 08:49:25;;;;;;;11.05;5.93;;;23.30;64.10;;;;;;6169840;28;83485;-65
2023/10/25 08:52:25;;;;;;;10.90;6.45;;;23.30;64.30;;;;;;6153884;28;80382;-63
2023/10/25 08:55:26;;;;;;;10.88;6.10;;;23.30;63.90;;;;;;6178263;28;80544;-64
2023/10/25 08:58:26;;;;;;;14.07;5.88;;;23.30;63.90;;;;;;6165906;28;82206;-65
2023/10/25 09:01:27;;;;;;;9.50;5.95;;;23.30;63.90;;;;;;6176160;28;83698;-65
2023/10/25 09:04:28;;;;;;;9.40;6.45;;;23.30;63.80;;;;;;6165897;28;80767;-64
2023/10/25 09:07:31;;;;;;;13.68;6.97;;;23.30;63.80;;;;;;6185066;28;81483;-63
2023/10/25 09:10:32;;;;;;;11.73;6.45;;;23.30;63.70;;;;;;6181243;28;84048;-63
2023/10/25 09:13:32;;;;;;;12.85;6.82;;;23.30;63.70;;;;;;6185287;28;82102;-64
2023/10/25 09:16:33;;;;;;;10.63;6.72;;;23.30;64.40;;;;;;6169053;28;80905;-64
2023/10/25 09:19:34;;;;;;;8.73;5.90;;;23.30;63.70;;;;;;6168791;28;80649;-63
2023/10/25 09:22:34;;;;;;;10.45;6.60;;;23.30;63.70;;;;;;6199465;28;80496;-64
2023/10/25 09:25:37;;;;;;;11.68;6.25;;;23.30;63.50;;;;;;6171165;28;80245;-65
2023/10/25 09:28:37;;;;;;;11.60;6.25;;;23.20;63.60;;;;;;6177658;28;80872;-63
2023/10/25 09:31:38;;;;;;;11.43;5.97;;;23.20;63.40;;;;;;6163561;28;81453;-64
2023/10/25 09:34:39;;;;;;;12.30;5.72;;;23.30;63.40;;;;;;6166153;28;83586;-65
2023/10/25 09:37:39;;;;;;;10.18;5.15;;;23.30;63.20;;;;;;6192914;28;82688;-64
2023/10/25 09:40:41;;;;;;;9.40;6.22;;;23.30;63.30;;;;;;6186848;28;80578;-68
2023/10/25 09:43:42;;;;;;;10.50;5.80;;;23.30;63.40;;;;;;6148771;28;80392;-63
2023/10/25 09:46:42;;;;;;;13.20;5.15;;;23.30;63.50;;;;;;6154073;28;85431;-65
2023/10/25 09:49:46;;;;;;;9.40;5.13;;;23.40;63.30;;;;;;6182817;28;80917;-63
2023/10/25 09:52:46;;;;;;;9.20;5.55;;;23.40;63.20;;;;;;6192386;28;82198;-64
2023/10/25 09:55:54;;;;;;;10.50;4.82;;;23.40;63.10;;;;;;6196062;27;85523;-64
2023/10/25 09:58:55;;;;;;;8.38;5.07;;;23.30;63.00;;;;;;6175299;28;82169;-67
2023/10/25 10:01:55;;;;;;;8.02;5.10;;;23.40;63.00;;;;;;6180694;28;81052;-64
2023/10/25 10:04:56;;;;;;;9.20;5.05;;;23.40;63.10;;;;;;6176126;28;80511;-63
2023/10/25 10:07:56;;;;;;;8.77;4.80;;;23.30;63.10;;;;;;6179623;28;82086;-63
2023/10/25 10:10:57;;;;;;;6.00;4.72;;;23.30;63.00;;;;;;6196563;28;81705;-63
2023/10/25 10:13:57;;;;;;;7.75;5.13;;;23.30;63.00;;;;;;6194716;28;81077;-63
2023/10/25 10:16:58;;;;;;;8.40;4.43;;;23.30;63.00;;;;;;6192637;27;85566;-62
2023/10/25 10:19:59;;;;;;;10.77;4.20;;;23.30;63.00;;;;;;6183002;28;80496;-62
2023/10/25 10:22:59;;;;;;;11.55;4.22;;;23.30;63.00;;;;;;6186493;28;81884;-64
2023/10/25 10:26:01;;;;;;;9.77;4.85;;;23.30;62.90;;;;;;6198429;28;83024;-63
2023/10/25 10:29:01;;;;;;;9.07;4.18;;;23.30;62.80;;;;;;6198418;28;82841;-63
2023/10/25 10:32:02;;;;;;;12.23;4.65;;;23.30;62.90;;;;;;6182820;28;80743;-63
2023/10/25 10:35:02;;;;;;;6.60;4.38;;;23.30;62.80;;;;;;6194700;28;80439;-63
2023/10/25 10:38:03;;;;;;;10.68;4.55;;;23.30;62.70;;;;;;6166143;28;81606;-66
2023/10/25 10:41:04;;;;;;;10.23;4.38;;;23.20;62.90;;;;;;6143205;28;83374;-67
2023/10/25 10:44:04;;;;;;;8.70;3.95;;;23.20;62.80;;;;;;6181994;28;82195;-69
2023/10/25 10:47:05;;;;;;;6.75;3.50;;;23.30;62.90;;;;;;6201093;27;81098;-69
2023/10/25 10:50:05;;;;;;;7.70;3.40;;;23.40;62.70;;;;;;6169066;28;81918;-67
2023/10/25 10:53:05;;;;;;;6.57;3.90;;;23.30;62.70;;;;;;6175217;28;81073;-67
2023/10/25 10:56:06;;;;;;;4.80;3.20;;;23.40;62.70;;;;;;6178183;28;83918;-65
2023/10/25 10:59:06;;;;;;;8.90;4.00;;;23.40;62.80;;;;;;6160879;28;80828;-65
2023/10/25 11:02:07;;;;;;;10.10;3.85;;;23.40;62.50;;;;;;6193405;28;83119;-66
2023/10/25 11:05:08;;;;;;;6.93;3.72;;;23.50;62.40;;;;;;6171818;28;80923;-68
2023/10/25 11:08:08;;;;;;;9.48;4.03;;;23.50;62.60;;;;;;6180013;28;81713;-67
2023/10/25 11:11:09;;;;;;;6.60;3.53;;;23.50;62.60;;;;;;6204831;27;81303;-67
2023/10/25 11:14:09;;;;;;;5.43;3.20;;;23.50;62.50;;;;;;6199735;28;80193;-59
2023/10/25 11:17:10;;;;;;;5.25;3.60;;;23.50;62.50;;;;;;6182712;27;81015;-59
2023/10/25 11:20:10;;;;;;;8.05;3.50;;;23.50;62.60;;;;;;6164509;28;80646;-59
2023/10/25 11:23:11;;;;;;;6.88;3.35;;;23.50;62.30;;;;;;6180888;28;80556;-60
2023/10/25 11:26:11;;;;;;;4.60;2.80;;;23.50;62.40;;;;;;6185436;28;80449;-60
2023/10/25 11:29:12;;;;;;;7.72;3.00;;;23.50;62.50;;;;;;6207922;28;80383;-58
2023/10/25 11:32:12;;;;;;;3.35;2.78;;;23.50;62.60;;;;;;6218129;27;80299;-60
2023/10/25 11:35:12;;;;;;;6.03;2.65;;;23.50;62.20;;;;;;6222416;28;81620;-60
2023/10/25 11:38:13;;;;;;;7.15;2.95;;;23.60;62.80;;;;;;6217219;28;80560;-59
2023/10/25 11:41:14;;;;;;;7.05;2.85;;;23.60;63.20;;;;;;6190016;28;80531;-60
2023/10/25 11:44:14;;;;;;;7.00;2.72;;;23.60;63.50;;;;;;6157645;28;80903;-60
2023/10/25 11:47:15;;;;;;;5.47;2.67;;;23.50;63.50;;;;;;6170416;28;80559;-59
2023/10/25 11:50:15;;;;;;;6.07;2.90;;;23.60;63.90;;;;;;6159387;28;80856;-63
2023/10/25 11:53:16;;;;;;;6.00;2.90;;;23.60;63.90;;;;;;6177801;28;83815;-68
2023/10/25 11:56:21;;;;;;;7.22;2.88;;;23.60;63.60;;;;;;6177364;28;81008;-68
2023/10/25 11:59:22;;;;;;;3.83;2.70;;;23.70;63.40;;;;;;6175389;28;81571;-66
2023/10/25 12:02:23;;;;;;;4.88;2.72;;;23.70;63.10;;;;;;6177457;28;80361;-66
2023/10/25 12:05:24;;;;;;;4.35;2.67;;;23.80;62.70;;;;;;6176226;28;81040;-67
2023/10/25 12:08:26;;;;;;;5.03;2.42;;;23.70;62.60;;;;;;6163471;28;80462;-68
2023/10/25 12:11:27;;;;;;;4.70;2.25;;;23.80;62.50;;;;;;6158524;28;80688;-66
2023/10/25 12:14:28;;;;;;;3.15;1.98;;;23.80;62.40;;;;;;6172220;28;80598;-66
2023/10/25 12:17:28;;;;;;;3.20;1.92;;;23.80;62.40;;;;;;6172749;28;80914;-64
2023/10/25 12:20:29;;;;;;;3.90;2.20;;;23.80;62.30;;;;;;6177707;28;80806;-65
2023/10/25 12:23:30;;;;;;;4.55;2.47;;;23.90;62.20;;;;;;6177202;28;80413;-65
2023/10/25 12:26:30;;;;;;;6.28;2.20;;;23.90;62.10;;;;;;6176827;28;80144;-59
2023/10/25 12:29:31;;;;;;;4.47;2.30;;;23.80;62.10;;;;;;6168686;28;80491;-60
2023/10/25 12:32:31;;;;;;;5.63;2.38;;;23.80;61.90;;;;;;6159547;28;80515;-60
2023/10/25 12:35:32;;;;;;;2.47;1.75;;;23.80;62.00;;;;;;6173099;28;81281;-61
2023/10/25 12:38:32;;;;;;;4.03;2.00;;;24.00;61.90;;;;;;6176355;28;80941;-59
2023/10/25 12:41:33;;;;;;;6.20;2.15;;;23.90;61.80;;;;;;6176416;28;80930;-59
2023/10/25 12:44:33;;;;;;;2.17;1.90;;;23.90;61.80;;;;;;6168754;28;83046;-66
2023/10/25 12:47:34;;;;;;;3.10;2.00;;;23.90;61.90;;;;;;6175877;28;81978;-66
2023/10/25 12:50:35;;;;;;;4.20;2.17;;;24.00;61.90;;;;;;6171975;28;84664;-62
2023/10/25 12:53:35;;;;;;;2.30;1.40;;;24.00;62.10;;;;;;6172230;28;81665;-65
2023/10/25 12:56:37;;;;;;;6.40;2.40;;;24.00;62.10;;;;;;6168787;28;80502;-64
2023/10/25 12:59:38;;;;;;;2.70;2.05;;;24.00;62.20;;;;;;6176088;28;84639;-64
2023/10/25 13:02:38;;;;;;;3.85;2.20;;;24.00;62.10;;;;;;6174674;28;80497;-65
2023/10/25 13:05:39;;;;;;;4.00;2.08;;;24.00;62.20;;;;;;6166580;28;83739;-65
2023/10/25 13:08:39;;;;;;;2.83;1.90;;;24.00;62.10;;;;;;6176514;28;81757;-64
2023/10/25 13:11:39;;;;;;;6.75;2.17;;;24.00;62.10;;;;;;6168052;28;81074;-72
2023/10/25 13:14:40;;;;;;;4.47;2.63;;;24.00;62.00;;;;;;6167243;28;80845;-70
2023/10/25 13:17:40;;;;;;;4.15;2.35;;;24.10;62.30;;;;;;6161045;27;80585;-70
2023/10/25 13:20:41;;;;;;;3.10;2.15;;;24.10;61.80;;;;;;6160072;28;80515;-70
2023/10/25 13:23:41;;;;;;;6.80;2.22;;;24.10;61.70;;;;;;6166372;28;80725;-66
2023/10/25 13:26:42;;;;;;;7.13;3.05;;;24.10;61.40;;;;;;6157516;28;80266;-66
2023/10/25 13:29:42;;;;;;;3.20;2.08;;;24.10;61.30;;;;;;6110594;28;81759;-63
2023/10/25 13:32:43;;;;;;;6.28;2.30;;;24.10;61.10;;;;;;6041317;28;81728;-65
2023/10/25 13:35:44;;;;;;;2.22;1.90;;;24.00;61.30;;;;;;6020990;27;88495;-65
2023/10/25 13:38:44;;;;;;;3.50;2.25;;;24.10;61.00;;;;;;6053610;28;82212;-63
2023/10/25 13:41:45;;;;;;;7.88;2.03;;;24.20;60.90;;;;;;6046106;28;81848;-68
2023/10/25 13:44:46;;;;;;;11.68;2.45;;;24.30;60.40;;;;;;6050653;28;82504;-73
2023/10/25 13:47:46;;;;;;;4.25;2.20;;;24.50;60.10;;;;;;6054666;28;81634;-72
2023/10/25 13:50:47;;;;;;;5.45;2.47;;;24.60;59.40;;;;;;6055176;28;83181;-67
2023/10/25 13:53:47;;;;;;;3.70;2.20;;;24.80;58.90;;;;;;6050292;28;82002;-76
2023/10/25 13:56:48;;;;;;;5.15;2.17;;;24.90;58.20;;;;;;6046441;28;81984;-72
2023/10/25 13:59:48;;;;;;;4.65;2.25;;;25.10;58.10;;;;;;6054304;28;83254;-58
2023/10/25 14:02:49;;;;;;;5.18;2.50;;;25.10;57.80;;;;;;6031607;28;82121;-62
2023/10/25 14:05:49;;;;;;;6.72;1.98;;;25.20;58.30;;;;;;6036467;28;81692;-59
2023/10/25 14:08:50;;;;;;;4.65;2.10;;;25.00;58.20;;;;;;6047918;28;81429;-60
2023/10/25 14:11:50;;;;;;;4.70;2.40;;;24.90;58.40;;;;;;6043188;28;81676;-60
2023/10/25 14:14:51;;;;;;;5.05;1.83;;;24.90;58.40;;;;;;6051062;28;81543;-59
2023/10/25 14:17:51;;;;;;;6.25;2.63;;;24.70;58.40;;;;;;6038724;28;81976;-59
2023/10/25 14:20:52;;;;;;;3.00;2.00;;;24.60;58.60;;;;;;6048471;28;82009;-59
2023/10/25 14:23:52;;;;;;;4.65;1.70;;;24.40;58.90;;;;;;6041789;28;81633;-60
2023/10/25 14:26:53;;;;;;;3.83;2.47;;;24.40;59.00;;;;;;6048426;28;82033;-60
2023/10/25 14:29:54;;;;;;;3.85;2.00;;;24.40;59.30;;;;;;6042356;28;82172;-59
2023/10/25 14:32:54;;;;;;;4.63;2.33;;;24.40;59.30;;;;;;6044861;28;82363;-60
2023/10/25 14:36:00;;;;;;;3.65;2.47;;;24.40;59.30;;;;;;6046938;28;82051;-58
2023/10/25 14:39:01;;;;;;;4.82;2.22;;;24.30;59.40;;;;;;6054757;28;84802;-59
2023/10/25 14:42:01;;;;;;;2.22;1.75;;;24.30;59.60;;;;;;6082121;27;80865;-58
2023/10/25 14:45:02;;;;;;;5.20;2.47;;;24.30;59.60;;;;;;6081586;27;80614;-59
2023/10/25 14:48:03;;;;;;;6.90;2.30;;;24.30;60.00;;;;;;6077406;27;83626;-59
2023/10/25 14:51:03;;;;;;;3.13;2.35;;;24.20;59.80;;;;;;6077079;27;80767;-61
2023/10/25 14:54:04;;;;;;;3.03;2.13;;;24.20;59.50;;;;;;6069986;27;82402;-66
2023/10/25 14:57:04;;;;;;;7.63;2.47;;;24.20;59.80;;;;;;6063695;28;82610;-67
2023/10/25 15:00:07;;;;;;;5.80;2.22;;;24.10;59.80;;;;;;6088737;28;82168;-67
2023/10/25 15:03:07;;;;;;;3.55;1.60;;;24.10;59.80;;;;;;6065982;28;82189;-67
2023/10/25 15:06:08;;;;;;;8.68;2.55;;;24.10;59.80;;;;;;6133398;28;81762;-67
2023/10/25 15:09:08;;;;;;;3.40;2.35;;;24.10;59.50;;;;;;6196275;28;81139;-61
2023/10/25 15:12:09;;;;;;;3.75;2.20;;;24.10;60.20;;;;;;6191467;28;80482;-64
2023/10/25 15:15:09;;;;;;;6.20;2.28;;;24.10;59.90;;;;;;6180680;28;81963;-63
2023/10/25 15:18:10;;;;;;;4.95;2.72;;;24.10;59.80;;;;;;6189403;28;82527;-64
2023/10/25 15:21:10;;;;;;;3.30;2.13;;;24.10;59.80;;;;;;6200568;28;80554;-64
2023/10/25 15:24:11;;;;;;;7.50;2.42;;;24.10;60.00;;;;;;6218586;28;83295;-67
2023/10/25 15:27:11;;;;;;;5.32;2.75;;;24.10;59.70;;;;;;6212374;27;80533;-68
2023/10/25 15:30:12;;;;;;;12.07;3.33;;;24.10;59.80;;;;;;6205842;28;80736;-66
2023/10/25 15:33:13;;;;;;;7.85;2.65;;;24.10;59.90;;;;;;6164257;28;80859;-66
2023/10/25 15:36:13;;;;;;;7.95;2.83;;;24.10;59.90;;;;;;6190017;28;81889;-65